Highgate Springs, Vermont
Current Conditions -  °F | °C
As of 11:35 PM on Saturday 25 Oct 2014 (Local Time) from KFSO Reporting Station
Overcast Overcast  
Wind Chill: 51°   Ceiling: 4900
Heat Index: 51°   Visibility: 10mi
Dew Point: 49°   Wind: 3mph
Humidity: 90%   Direction: 200°SSW
Pressure: 29.42"   Gusts: NA
Location:  44.98°N, 73.11°W
Report Text: KFSO 260335Z AUTO 20003KT 10SM OVC049 11/09 A2942 RMK AO2 T01080093
Loading
Personal Weather Stations






























Interactive Weather Map
Tropical Storm Tracking
New forecast layout! Learn more

10-Day Weather Forecast

Advertisements
Track Severe Weather on mobile